sensor_id;sensor_type;location;lat;lon;timestamp;P1;durP1;ratioP1;P2;durP2;ratioP2
10088;SDS011;51898;49.864;8.550;2023-08-30T00:00:46;6.47;;;5.87;;
10088;SDS011;51898;49.864;8.550;2023-08-30T00:03:48;6.00;;;5.20;;
10088;SDS011;51898;49.864;8.550;2023-08-30T00:06:49;5.90;;;5.30;;
10088;SDS011;51898;49.864;8.550;2023-08-30T00:09:51;5.80;;;5.30;;
10088;SDS011;51898;49.864;8.550;2023-08-30T00:12:53;6.50;;;5.80;;
10088;SDS011;51898;49.864;8.550;2023-08-30T00:15:55;6.67;;;5.97;;
10088;SDS011;51898;49.864;8.550;2023-08-30T00:18:56;6.60;;;6.00;;
10088;SDS011;51898;49.864;8.550;2023-08-30T00:21:58;8.37;;;7.57;;
10088;SDS011;51898;49.864;8.550;2023-08-30T00:25:00;10.70;;;7.20;;
10088;SDS011;51898;49.864;8.550;2023-08-30T00:28:01;8.30;;;6.70;;
10088;SDS011;51898;49.864;8.550;2023-08-30T00:31:03;8.30;;;6.87;;
10088;SDS011;51898;49.864;8.550;2023-08-30T00:34:05;10.07;;;7.23;;
10088;SDS011;51898;49.864;8.550;2023-08-30T00:37:06;7.70;;;7.00;;
10088;SDS011;51898;49.864;8.550;2023-08-30T00:40:10;8.37;;;7.10;;
10088;SDS011;51898;49.864;8.550;2023-08-30T00:43:11;10.97;;;7.70;;
10088;SDS011;51898;49.864;8.550;2023-08-30T00:46:13;9.13;;;7.93;;
10088;SDS011;51898;49.864;8.550;2023-08-30T00:49:17;8.23;;;7.27;;
10088;SDS011;51898;49.864;8.550;2023-08-30T00:52:18;11.07;;;8.60;;
10088;SDS011;51898;49.864;8.550;2023-08-30T00:55:20;9.63;;;8.50;;
10088;SDS011;51898;49.864;8.550;2023-08-30T00:58:22;10.37;;;7.97;;
10088;SDS011;51898;49.864;8.550;2023-08-30T01:01:24;9.87;;;8.80;;
10088;SDS011;51898;49.864;8.550;2023-08-30T01:04:26;7.83;;;7.03;;
10088;SDS011;51898;49.864;8.550;2023-08-30T01:07:29;10.40;;;9.27;;
10088;SDS011;51898;49.864;8.550;2023-08-30T01:10:35;10.77;;;9.20;;
10088;SDS011;51898;49.864;8.550;2023-08-30T01:13:44;10.63;;;9.30;;
10088;SDS011;51898;49.864;8.550;2023-08-30T01:16:54;10.90;;;9.00;;
10088;SDS011;51898;49.864;8.550;2023-08-30T01:20:01;9.73;;;8.13;;
10088;SDS011;51898;49.864;8.550;2023-08-30T01:23:26;9.53;;;8.57;;
10088;SDS011;51898;49.864;8.550;2023-08-30T01:26:42;11.47;;;8.60;;
10088;SDS011;51898;49.864;8.550;2023-08-30T01:29:52;10.73;;;8.47;;
10088;SDS011;51898;49.864;8.550;2023-08-30T01:32:56;11.90;;;8.50;;
10088;SDS011;51898;49.864;8.550;2023-08-30T01:36:01;11.00;;;10.00;;
10088;SDS011;51898;49.864;8.550;2023-08-30T01:39:04;10.83;;;8.70;;
10088;SDS011;51898;49.864;8.550;2023-08-30T01:42:08;10.20;;;9.13;;
10088;SDS011;51898;49.864;8.550;2023-08-30T01:45:10;10.37;;;8.83;;
10088;SDS011;51898;49.864;8.550;2023-08-30T01:48:15;9.80;;;8.80;;
10088;SDS011;51898;49.864;8.550;2023-08-30T01:51:19;9.53;;;8.60;;
10088;SDS011;51898;49.864;8.550;2023-08-30T01:54:20;10.03;;;8.57;;
10088;SDS011;51898;49.864;8.550;2023-08-30T01:57:23;9.47;;;8.57;;
10088;SDS011;51898;49.864;8.550;2023-08-30T02:00:24;10.17;;;8.43;;
10088;SDS011;51898;49.864;8.550;2023-08-30T02:03:26;8.93;;;7.90;;
10088;SDS011;51898;49.864;8.550;2023-08-30T02:06:31;8.80;;;8.00;;
10088;SDS011;51898;49.864;8.550;2023-08-30T02:09:55;9.70;;;8.13;;
10088;SDS011;51898;49.864;8.550;2023-08-30T02:13:02;9.20;;;8.30;;
10088;SDS011;51898;49.864;8.550;2023-08-30T02:16:05;9.47;;;8.37;;
10088;SDS011;51898;49.864;8.550;2023-08-30T02:19:08;9.90;;;8.90;;
10088;SDS011;51898;49.864;8.550;2023-08-30T02:22:10;10.30;;;8.87;;
10088;SDS011;51898;49.864;8.550;2023-08-30T02:25:12;10.70;;;8.90;;
10088;SDS011;51898;49.864;8.550;2023-08-30T02:28:14;12.70;;;8.87;;
10088;SDS011;51898;49.864;8.550;2023-08-30T02:31:15;10.77;;;8.87;;
10088;SDS011;51898;49.864;8.550;2023-08-30T02:34:17;9.83;;;8.37;;
10088;SDS011;51898;49.864;8.550;2023-08-30T02:37:19;10.13;;;9.13;;
10088;SDS011;51898;49.864;8.550;2023-08-30T02:40:21;9.77;;;8.90;;
10088;SDS011;51898;49.864;8.550;2023-08-30T02:43:22;8.60;;;7.70;;
10088;SDS011;51898;49.864;8.550;2023-08-30T02:46:26;9.50;;;8.60;;
10088;SDS011;51898;49.864;8.550;2023-08-30T02:49:28;10.20;;;8.47;;
10088;SDS011;51898;49.864;8.550;2023-08-30T02:52:30;10.10;;;8.70;;
10088;SDS011;51898;49.864;8.550;2023-08-30T02:55:31;12.17;;;9.53;;
10088;SDS011;51898;49.864;8.550;2023-08-30T02:58:33;9.23;;;8.33;;
10088;SDS011;51898;49.864;8.550;2023-08-30T03:01:35;11.10;;;9.50;;
10088;SDS011;51898;49.864;8.550;2023-08-30T03:04:37;9.90;;;8.90;;
10088;SDS011;51898;49.864;8.550;2023-08-30T03:07:39;9.57;;;8.50;;
10088;SDS011;51898;49.864;8.550;2023-08-30T03:10:41;10.17;;;9.13;;
10088;SDS011;51898;49.864;8.550;2023-08-30T03:13:43;9.83;;;8.83;;
10088;SDS011;51898;49.864;8.550;2023-08-30T03:16:44;10.10;;;8.83;;
10088;SDS011;51898;49.864;8.550;2023-08-30T03:19:48;9.63;;;8.20;;
10088;SDS011;51898;49.864;8.550;2023-08-30T03:22:49;12.00;;;9.37;;
10088;SDS011;51898;49.864;8.550;2023-08-30T03:25:51;10.27;;;9.27;;
10088;SDS011;51898;49.864;8.550;2023-08-30T03:28:53;10.23;;;9.23;;
10088;SDS011;51898;49.864;8.550;2023-08-30T03:31:55;11.93;;;10.70;;
10088;SDS011;51898;49.864;8.550;2023-08-30T03:34:57;10.93;;;9.27;;
10088;SDS011;51898;49.864;8.550;2023-08-30T03:37:58;15.27;;;10.77;;
10088;SDS011;51898;49.864;8.550;2023-08-30T03:41:00;11.77;;;10.60;;
10088;SDS011;51898;49.864;8.550;2023-08-30T03:44:03;12.13;;;10.83;;
10088;SDS011;51898;49.864;8.550;2023-08-30T03:47:05;11.20;;;10.00;;
10088;SDS011;51898;49.864;8.550;2023-08-30T03:50:07;11.50;;;9.73;;
10088;SDS011;51898;49.864;8.550;2023-08-30T03:53:10;16.03;;;10.07;;
10088;SDS011;51898;49.864;8.550;2023-08-30T03:56:11;10.13;;;9.03;;
10088;SDS011;51898;49.864;8.550;2023-08-30T03:59:13;10.73;;;9.70;;
10088;SDS011;51898;49.864;8.550;2023-08-30T04:02:15;11.10;;;10.00;;
10088;SDS011;51898;49.864;8.550;2023-08-30T04:05:17;13.30;;;10.30;;
10088;SDS011;51898;49.864;8.550;2023-08-30T04:08:18;11.67;;;10.47;;
10088;SDS011;51898;49.864;8.550;2023-08-30T04:11:21;11.90;;;10.70;;
10088;SDS011;51898;49.864;8.550;2023-08-30T04:14:23;12.40;;;11.10;;
10088;SDS011;51898;49.864;8.550;2023-08-30T04:17:25;12.87;;;11.23;;
10088;SDS011;51898;49.864;8.550;2023-08-30T04:20:26;13.10;;;11.80;;
10088;SDS011;51898;49.864;8.550;2023-08-30T04:23:29;13.33;;;11.93;;
10088;SDS011;51898;49.864;8.550;2023-08-30T04:26:30;15.60;;;12.20;;
10088;SDS011;51898;49.864;8.550;2023-08-30T04:29:32;17.07;;;12.70;;
10088;SDS011;51898;49.864;8.550;2023-08-30T04:32:34;12.73;;;11.43;;
10088;SDS011;51898;49.864;8.550;2023-08-30T04:35:36;14.50;;;11.63;;
10088;SDS011;51898;49.864;8.550;2023-08-30T04:38:40;18.03;;;13.67;;
10088;SDS011;51898;49.864;8.550;2023-08-30T04:41:56;15.47;;;12.80;;
10088;SDS011;51898;49.864;8.550;2023-08-30T04:44:58;16.13;;;14.07;;
10088;SDS011;51898;49.864;8.550;2023-08-30T04:48:01;14.80;;;13.30;;
10088;SDS011;51898;49.864;8.550;2023-08-30T04:51:04;17.90;;;13.40;;
10088;SDS011;51898;49.864;8.550;2023-08-30T04:54:06;15.80;;;13.83;;
10088;SDS011;51898;49.864;8.550;2023-08-30T04:57:07;15.67;;;13.80;;
10088;SDS011;51898;49.864;8.550;2023-08-30T05:00:09;18.40;;;14.63;;
10088;SDS011;51898;49.864;8.550;2023-08-30T05:03:12;17.57;;;13.50;;
10088;SDS011;51898;49.864;8.550;2023-08-30T05:06:14;16.07;;;14.17;;
10088;SDS011;51898;49.864;8.550;2023-08-30T05:09:17;15.10;;;13.60;;
10088;SDS011;51898;49.864;8.550;2023-08-30T05:12:19;17.97;;;15.23;;
10088;SDS011;51898;49.864;8.550;2023-08-30T05:15:21;15.87;;;14.23;;
10088;SDS011;51898;49.864;8.550;2023-08-30T05:18:23;16.80;;;15.00;;
10088;SDS011;51898;49.864;8.550;2023-08-30T05:21:24;17.00;;;15.20;;
10088;SDS011;51898;49.864;8.550;2023-08-30T05:24:26;16.13;;;14.30;;
10088;SDS011;51898;49.864;8.550;2023-08-30T05:27:29;16.13;;;14.10;;
10088;SDS011;51898;49.864;8.550;2023-08-30T05:30:31;18.20;;;15.30;;
10088;SDS011;51898;49.864;8.550;2023-08-30T05:33:33;16.90;;;15.17;;
10088;SDS011;51898;49.864;8.550;2023-08-30T05:36:34;17.20;;;14.93;;
10088;SDS011;51898;49.864;8.550;2023-08-30T05:39:36;16.80;;;14.90;;
10088;SDS011;51898;49.864;8.550;2023-08-30T05:42:38;18.30;;;13.90;;
10088;SDS011;51898;49.864;8.550;2023-08-30T05:45:40;16.30;;;14.40;;
10088;SDS011;51898;49.864;8.550;2023-08-30T05:48:41;15.53;;;13.93;;
10088;SDS011;51898;49.864;8.550;2023-08-30T05:51:43;17.57;;;14.70;;
10088;SDS011;51898;49.864;8.550;2023-08-30T05:54:45;18.60;;;15.83;;
10088;SDS011;51898;49.864;8.550;2023-08-30T05:57:46;17.30;;;15.53;;
10088;SDS011;51898;49.864;8.550;2023-08-30T06:00:48;16.20;;;14.13;;
10088;SDS011;51898;49.864;8.550;2023-08-30T06:03:50;17.47;;;15.20;;
10088;SDS011;51898;49.864;8.550;2023-08-30T06:06:52;17.47;;;15.57;;
10088;SDS011;51898;49.864;8.550;2023-08-30T06:09:54;16.63;;;14.23;;
10088;SDS011;51898;49.864;8.550;2023-08-30T06:12:59;17.07;;;15.37;;
10088;SDS011;51898;49.864;8.550;2023-08-30T06:16:01;15.97;;;14.03;;
10088;SDS011;51898;49.864;8.550;2023-08-30T06:19:03;14.13;;;12.67;;
10088;SDS011;51898;49.864;8.550;2023-08-30T06:22:05;15.23;;;13.63;;
10088;SDS011;51898;49.864;8.550;2023-08-30T06:25:07;16.87;;;14.37;;
10088;SDS011;51898;49.864;8.550;2023-08-30T06:28:09;13.30;;;11.77;;
10088;SDS011;51898;49.864;8.550;2023-08-30T06:31:11;20.10;;;14.70;;
10088;SDS011;51898;49.864;8.550;2023-08-30T06:34:15;18.90;;;14.40;;
10088;SDS011;51898;49.864;8.550;2023-08-30T06:37:17;18.63;;;13.80;;
10088;SDS011;51898;49.864;8.550;2023-08-30T06:40:19;15.00;;;13.50;;
10088;SDS011;51898;49.864;8.550;2023-08-30T06:43:21;16.57;;;14.40;;
10088;SDS011;51898;49.864;8.550;2023-08-30T06:46:23;17.70;;;15.00;;
10088;SDS011;51898;49.864;8.550;2023-08-30T06:49:24;15.63;;;13.67;;
10088;SDS011;51898;49.864;8.550;2023-08-30T06:52:26;17.13;;;15.30;;
10088;SDS011;51898;49.864;8.550;2023-08-30T06:55:28;18.10;;;14.60;;
10088;SDS011;51898;49.864;8.550;2023-08-30T06:58:30;15.63;;;13.00;;
10088;SDS011;51898;49.864;8.550;2023-08-30T07:01:31;19.97;;;14.60;;
10088;SDS011;51898;49.864;8.550;2023-08-30T07:04:36;18.43;;;15.30;;
10088;SDS011;51898;49.864;8.550;2023-08-30T07:07:38;16.00;;;13.40;;
10088;SDS011;51898;49.864;8.550;2023-08-30T07:10:40;20.60;;;15.23;;
10088;SDS011;51898;49.864;8.550;2023-08-30T07:13:42;15.40;;;13.80;;
10088;SDS011;51898;49.864;8.550;2023-08-30T07:16:43;15.03;;;13.37;;
10088;SDS011;51898;49.864;8.550;2023-08-30T07:19:45;15.17;;;13.70;;
10088;SDS011;51898;49.864;8.550;2023-08-30T07:22:47;16.30;;;14.67;;
10088;SDS011;51898;49.864;8.550;2023-08-30T07:25:51;15.63;;;13.80;;
10088;SDS011;51898;49.864;8.550;2023-08-30T07:28:52;15.20;;;13.60;;
10088;SDS011;51898;49.864;8.550;2023-08-30T07:31:54;14.20;;;12.77;;
10088;SDS011;51898;49.864;8.550;2023-08-30T07:34:56;16.70;;;13.20;;
10088;SDS011;51898;49.864;8.550;2023-08-30T07:37:59;14.90;;;13.20;;
10088;SDS011;51898;49.864;8.550;2023-08-30T07:41:01;12.80;;;11.53;;
10088;SDS011;51898;49.864;8.550;2023-08-30T07:44:03;15.03;;;13.43;;
10088;SDS011;51898;49.864;8.550;2023-08-30T07:47:05;13.63;;;12.33;;
10088;SDS011;51898;49.864;8.550;2023-08-30T07:50:07;14.10;;;12.67;;
10088;SDS011;51898;49.864;8.550;2023-08-30T07:53:09;15.57;;;13.87;;
10088;SDS011;51898;49.864;8.550;2023-08-30T07:56:11;14.03;;;12.60;;
10088;SDS011;51898;49.864;8.550;2023-08-30T07:59:13;14.13;;;12.83;;
10088;SDS011;51898;49.864;8.550;2023-08-30T08:02:15;15.60;;;13.50;;
10088;SDS011;51898;49.864;8.550;2023-08-30T08:05:17;16.43;;;13.23;;
10088;SDS011;51898;49.864;8.550;2023-08-30T08:08:18;14.73;;;13.33;;
10088;SDS011;51898;49.864;8.550;2023-08-30T08:11:20;15.63;;;13.93;;
10088;SDS011;51898;49.864;8.550;2023-08-30T08:14:23;16.40;;;14.27;;
10088;SDS011;51898;49.864;8.550;2023-08-30T08:17:25;16.30;;;13.53;;
10088;SDS011;51898;49.864;8.550;2023-08-30T08:20:28;15.90;;;14.30;;
10088;SDS011;51898;49.864;8.550;2023-08-30T08:23:30;17.30;;;13.00;;
10088;SDS011;51898;49.864;8.550;2023-08-30T08:26:32;15.30;;;13.90;;
10088;SDS011;51898;49.864;8.550;2023-08-30T08:29:33;16.50;;;14.60;;
10088;SDS011;51898;49.864;8.550;2023-08-30T08:32:35;15.63;;;14.10;;
10088;SDS011;51898;49.864;8.550;2023-08-30T08:35:37;14.20;;;12.80;;
10088;SDS011;51898;49.864;8.550;2023-08-30T08:38:39;17.10;;;13.13;;
10088;SDS011;51898;49.864;8.550;2023-08-30T08:41:41;14.00;;;12.60;;
10088;SDS011;51898;49.864;8.550;2023-08-30T08:44:44;14.07;;;12.60;;
10088;SDS011;51898;49.864;8.550;2023-08-30T08:47:48;12.83;;;11.73;;
10088;SDS011;51898;49.864;8.550;2023-08-30T08:50:50;13.30;;;11.80;;
10088;SDS011;51898;49.864;8.550;2023-08-30T08:53:52;14.23;;;12.83;;
10088;SDS011;51898;49.864;8.550;2023-08-30T08:57:00;13.20;;;11.80;;
10088;SDS011;51898;49.864;8.550;2023-08-30T09:00:02;15.93;;;12.20;;
10088;SDS011;51898;49.864;8.550;2023-08-30T09:03:05;16.97;;;12.97;;
10088;SDS011;51898;49.864;8.550;2023-08-30T09:06:07;14.37;;;12.97;;
10088;SDS011;51898;49.864;8.550;2023-08-30T09:09:08;14.50;;;12.93;;
10088;SDS011;51898;49.864;8.550;2023-08-30T09:12:11;12.87;;;11.57;;
10088;SDS011;51898;49.864;8.550;2023-08-30T09:15:12;14.10;;;12.43;;
10088;SDS011;51898;49.864;8.550;2023-08-30T09:18:16;14.50;;;12.83;;
10088;SDS011;51898;49.864;8.550;2023-08-30T09:21:19;14.67;;;13.17;;
10088;SDS011;51898;49.864;8.550;2023-08-30T09:24:21;13.63;;;12.23;;
10088;SDS011;51898;49.864;8.550;2023-08-30T09:27:30;12.47;;;11.03;;
10088;SDS011;51898;49.864;8.550;2023-08-30T09:30:35;15.30;;;12.43;;
10088;SDS011;51898;49.864;8.550;2023-08-30T09:33:37;12.37;;;11.10;;
10088;SDS011;51898;49.864;8.550;2023-08-30T09:36:39;13.20;;;11.83;;
10088;SDS011;51898;49.864;8.550;2023-08-30T09:39:47;14.50;;;11.07;;
10088;SDS011;51898;49.864;8.550;2023-08-30T09:42:50;12.60;;;10.37;;
10088;SDS011;51898;49.864;8.550;2023-08-30T09:46:12;11.77;;;10.47;;
10088;SDS011;51898;49.864;8.550;2023-08-30T09:49:14;11.27;;;10.17;;
10088;SDS011;51898;49.864;8.550;2023-08-30T09:52:16;10.67;;;9.60;;
10088;SDS011;51898;49.864;8.550;2023-08-30T09:55:19;10.60;;;9.20;;
10088;SDS011;51898;49.864;8.550;2023-08-30T09:58:22;9.70;;;8.80;;
10088;SDS011;51898;49.864;8.550;2023-08-30T10:01:27;10.73;;;9.57;;
10088;SDS011;51898;49.864;8.550;2023-08-30T10:04:29;10.20;;;9.20;;
10088;SDS011;51898;49.864;8.550;2023-08-30T10:07:32;8.73;;;7.93;;
10088;SDS011;51898;49.864;8.550;2023-08-30T10:10:34;12.30;;;9.50;;
10088;SDS011;51898;49.864;8.550;2023-08-30T10:13:37;13.53;;;9.03;;
10088;SDS011;51898;49.864;8.550;2023-08-30T10:19:43;7.40;;;6.70;;
10088;SDS011;51898;49.864;8.550;2023-08-30T10:22:47;8.10;;;6.23;;
10088;SDS011;51898;49.864;8.550;2023-08-30T10:25:51;7.67;;;6.97;;
10088;SDS011;51898;49.864;8.550;2023-08-30T10:28:55;10.13;;;7.90;;
10088;SDS011;51898;49.864;8.550;2023-08-30T10:32:02;7.57;;;6.80;;
10088;SDS011;51898;49.864;8.550;2023-08-30T10:35:10;7.33;;;6.67;;
10088;SDS011;51898;49.864;8.550;2023-08-30T10:38:13;7.13;;;5.60;;
10088;SDS011;51898;49.864;8.550;2023-08-30T10:41:27;5.63;;;5.10;;
10088;SDS011;51898;49.864;8.550;2023-08-30T10:44:29;6.13;;;4.70;;
10088;SDS011;51898;49.864;8.550;2023-08-30T10:47:32;5.40;;;4.90;;
10088;SDS011;51898;49.864;8.550;2023-08-30T10:50:37;5.97;;;5.00;;
10088;SDS011;51898;49.864;8.550;2023-08-30T10:53:39;4.60;;;4.03;;
10088;SDS011;51898;49.864;8.550;2023-08-30T10:56:47;4.83;;;3.97;;
10088;SDS011;51898;49.864;8.550;2023-08-30T11:00:05;7.67;;;3.97;;
10088;SDS011;51898;49.864;8.550;2023-08-30T11:03:11;5.70;;;4.20;;
10088;SDS011;51898;49.864;8.550;2023-08-30T11:06:15;4.73;;;4.03;;
10088;SDS011;51898;49.864;8.550;2023-08-30T11:09:20;5.07;;;4.40;;
10088;SDS011;51898;49.864;8.550;2023-08-30T11:12:24;7.90;;;3.93;;
10088;SDS011;51898;49.864;8.550;2023-08-30T11:15:26;5.70;;;3.37;;
10088;SDS011;51898;49.864;8.550;2023-08-30T11:18:28;3.40;;;3.10;;
10088;SDS011;51898;49.864;8.550;2023-08-30T11:21:39;4.20;;;3.80;;
10088;SDS011;51898;49.864;8.550;2023-08-30T11:24:45;3.90;;;3.60;;
10088;SDS011;51898;49.864;8.550;2023-08-30T11:27:49;4.53;;;4.13;;
10088;SDS011;51898;49.864;8.550;2023-08-30T11:30:54;4.83;;;3.70;;
10088;SDS011;51898;49.864;8.550;2023-08-30T11:33:56;11.20;;;4.00;;
10088;SDS011;51898;49.864;8.550;2023-08-30T11:37:00;5.20;;;3.90;;
10088;SDS011;51898;49.864;8.550;2023-08-30T11:40:03;4.50;;;4.10;;
10088;SDS011;51898;49.864;8.550;2023-08-30T11:43:07;7.60;;;4.07;;
10088;SDS011;51898;49.864;8.550;2023-08-30T11:46:10;4.70;;;4.30;;
10088;SDS011;51898;49.864;8.550;2023-08-30T11:49:13;5.03;;;4.63;;
10088;SDS011;51898;49.864;8.550;2023-08-30T11:52:16;5.17;;;3.83;;
10088;SDS011;51898;49.864;8.550;2023-08-30T11:55:22;5.17;;;4.43;;
10088;SDS011;51898;49.864;8.550;2023-08-30T11:58:25;5.43;;;4.93;;
10088;SDS011;51898;49.864;8.550;2023-08-30T12:01:26;4.83;;;4.30;;
10088;SDS011;51898;49.864;8.550;2023-08-30T12:04:28;6.50;;;4.30;;
10088;SDS011;51898;49.864;8.550;2023-08-30T12:07:31;6.50;;;4.37;;
10088;SDS011;51898;49.864;8.550;2023-08-30T12:10:34;4.20;;;3.90;;
10088;SDS011;51898;49.864;8.550;2023-08-30T12:13:36;5.00;;;4.50;;
10088;SDS011;51898;49.864;8.550;2023-08-30T12:16:39;4.80;;;3.70;;
10088;SDS011;51898;49.864;8.550;2023-08-30T12:19:41;5.77;;;4.77;;
10088;SDS011;51898;49.864;8.550;2023-08-30T12:22:43;5.00;;;4.50;;
10088;SDS011;51898;49.864;8.550;2023-08-30T12:25:45;5.33;;;4.00;;
10088;SDS011;51898;49.864;8.550;2023-08-30T12:29:02;4.23;;;3.60;;
10088;SDS011;51898;49.864;8.550;2023-08-30T12:32:04;4.40;;;4.00;;
10088;SDS011;51898;49.864;8.550;2023-08-30T12:35:07;5.90;;;4.57;;
10088;SDS011;51898;49.864;8.550;2023-08-30T12:38:09;5.00;;;4.50;;
10088;SDS011;51898;49.864;8.550;2023-08-30T12:41:10;5.03;;;4.30;;
10088;SDS011;51898;49.864;8.550;2023-08-30T12:44:12;5.00;;;4.50;;
10088;SDS011;51898;49.864;8.550;2023-08-30T12:47:14;5.07;;;4.13;;
10088;SDS011;51898;49.864;8.550;2023-08-30T12:50:16;5.30;;;4.67;;
10088;SDS011;51898;49.864;8.550;2023-08-30T12:53:17;7.80;;;4.93;;
10088;SDS011;51898;49.864;8.550;2023-08-30T12:56:19;4.60;;;4.20;;
10088;SDS011;51898;49.864;8.550;2023-08-30T12:59:21;4.77;;;4.37;;
10088;SDS011;51898;49.864;8.550;2023-08-30T13:02:22;5.53;;;4.97;;
10088;SDS011;51898;49.864;8.550;2023-08-30T13:05:24;8.13;;;4.80;;
10088;SDS011;51898;49.864;8.550;2023-08-30T13:08:26;5.30;;;4.73;;
10088;SDS011;51898;49.864;8.550;2023-08-30T13:11:28;4.83;;;4.43;;
10088;SDS011;51898;49.864;8.550;2023-08-30T13:14:31;4.83;;;4.40;;
10088;SDS011;51898;49.864;8.550;2023-08-30T13:17:33;6.70;;;4.30;;
10088;SDS011;51898;49.864;8.550;2023-08-30T13:20:37;5.10;;;4.33;;
10088;SDS011;51898;49.864;8.550;2023-08-30T13:23:40;4.27;;;3.97;;
10088;SDS011;51898;49.864;8.550;2023-08-30T13:26:42;4.87;;;4.40;;
10088;SDS011;51898;49.864;8.550;2023-08-30T13:29:44;4.40;;;4.00;;
10088;SDS011;51898;49.864;8.550;2023-08-30T13:32:46;7.40;;;4.30;;
10088;SDS011;51898;49.864;8.550;2023-08-30T13:35:50;4.83;;;4.43;;
10088;SDS011;51898;49.864;8.550;2023-08-30T13:38:52;4.80;;;4.03;;
10088;SDS011;51898;49.864;8.550;2023-08-30T13:41:54;4.20;;;3.90;;
10088;SDS011;51898;49.864;8.550;2023-08-30T13:44:56;4.87;;;4.47;;
10088;SDS011;51898;49.864;8.550;2023-08-30T13:47:58;5.00;;;4.50;;
10088;SDS011;51898;49.864;8.550;2023-08-30T13:51:00;4.73;;;4.33;;
10088;SDS011;51898;49.864;8.550;2023-08-30T13:54:02;4.60;;;4.20;;
10088;SDS011;51898;49.864;8.550;2023-08-30T13:57:04;5.73;;;5.17;;
10088;SDS011;51898;49.864;8.550;2023-08-30T14:00:06;4.80;;;4.40;;
10088;SDS011;51898;49.864;8.550;2023-08-30T14:03:11;5.13;;;4.50;;
10088;SDS011;51898;49.864;8.550;2023-08-30T14:06:14;5.73;;;5.27;;
10088;SDS011;51898;49.864;8.550;2023-08-30T14:09:16;5.30;;;4.80;;
10088;SDS011;51898;49.864;8.550;2023-08-30T14:12:17;5.60;;;5.10;;
10088;SDS011;51898;49.864;8.550;2023-08-30T14:15:19;6.60;;;4.93;;
10088;SDS011;51898;49.864;8.550;2023-08-30T14:18:21;7.03;;;4.97;;
10088;SDS011;51898;49.864;8.550;2023-08-30T14:21:22;5.57;;;5.07;;
10088;SDS011;51898;49.864;8.550;2023-08-30T14:24:24;5.60;;;5.20;;
10088;SDS011;51898;49.864;8.550;2023-08-30T14:27:26;6.23;;;5.73;;
10088;SDS011;51898;49.864;8.550;2023-08-30T14:30:28;6.23;;;5.53;;
10088;SDS011;51898;49.864;8.550;2023-08-30T14:33:30;5.90;;;5.40;;
10088;SDS011;51898;49.864;8.550;2023-08-30T14:36:33;5.80;;;5.40;;
10088;SDS011;51898;49.864;8.550;2023-08-30T14:39:34;6.10;;;5.50;;
10088;SDS011;51898;49.864;8.550;2023-08-30T14:42:36;5.60;;;5.10;;
10088;SDS011;51898;49.864;8.550;2023-08-30T14:45:38;5.80;;;5.20;;
10088;SDS011;51898;49.864;8.550;2023-08-30T14:48:40;6.30;;;5.80;;
10088;SDS011;51898;49.864;8.550;2023-08-30T14:51:42;5.80;;;5.40;;
10088;SDS011;51898;49.864;8.550;2023-08-30T14:54:43;6.23;;;5.63;;
10088;SDS011;51898;49.864;8.550;2023-08-30T14:57:45;7.97;;;4.93;;
10088;SDS011;51898;49.864;8.550;2023-08-30T15:00:47;5.37;;;4.90;;
10088;SDS011;51898;49.864;8.550;2023-08-30T15:03:49;5.83;;;4.73;;
10088;SDS011;51898;49.864;8.550;2023-08-30T15:06:51;5.47;;;4.80;;
10088;SDS011;51898;49.864;8.550;2023-08-30T15:09:53;6.17;;;5.23;;
10088;SDS011;51898;49.864;8.550;2023-08-30T15:12:55;5.00;;;4.60;;
10088;SDS011;51898;49.864;8.550;2023-08-30T15:15:57;4.97;;;4.57;;
10088;SDS011;51898;49.864;8.550;2023-08-30T15:18:59;9.77;;;4.40;;
10088;SDS011;51898;49.864;8.550;2023-08-30T15:22:00;3.80;;;3.50;;
10088;SDS011;51898;49.864;8.550;2023-08-30T15:25:04;3.80;;;3.50;;
10088;SDS011;51898;49.864;8.550;2023-08-30T15:28:07;5.13;;;3.60;;
10088;SDS011;51898;49.864;8.550;2023-08-30T15:31:09;4.07;;;3.57;;
10088;SDS011;51898;49.864;8.550;2023-08-30T15:34:12;3.50;;;3.20;;
10088;SDS011;51898;49.864;8.550;2023-08-30T15:37:14;4.30;;;3.90;;
10088;SDS011;51898;49.864;8.550;2023-08-30T15:40:16;4.13;;;3.50;;
10088;SDS011;51898;49.864;8.550;2023-08-30T15:43:17;5.70;;;3.80;;
10088;SDS011;51898;49.864;8.550;2023-08-30T15:46:19;4.10;;;3.63;;
10088;SDS011;51898;49.864;8.550;2023-08-30T15:49:21;4.10;;;3.60;;
10088;SDS011;51898;49.864;8.550;2023-08-30T15:52:23;5.60;;;4.00;;
10088;SDS011;51898;49.864;8.550;2023-08-30T15:55:26;5.03;;;3.23;;
10088;SDS011;51898;49.864;8.550;2023-08-30T15:58:29;4.87;;;3.17;;
10088;SDS011;51898;49.864;8.550;2023-08-30T16:01:32;3.93;;;3.60;;
10088;SDS011;51898;49.864;8.550;2023-08-30T16:04:34;6.40;;;3.73;;
10088;SDS011;51898;49.864;8.550;2023-08-30T16:07:39;4.70;;;3.87;;
10088;SDS011;51898;49.864;8.550;2023-08-30T16:10:40;3.53;;;3.23;;
10088;SDS011;51898;49.864;8.550;2023-08-30T16:13:42;5.20;;;4.10;;
10088;SDS011;51898;49.864;8.550;2023-08-30T16:16:44;4.70;;;3.53;;
10088;SDS011;51898;49.864;8.550;2023-08-30T16:19:45;9.67;;;4.00;;
10088;SDS011;51898;49.864;8.550;2023-08-30T16:22:48;4.80;;;4.30;;
10088;SDS011;51898;49.864;8.550;2023-08-30T16:25:50;4.23;;;3.77;;
10088;SDS011;51898;49.864;8.550;2023-08-30T16:28:52;5.50;;;3.90;;
10088;SDS011;51898;49.864;8.550;2023-08-30T16:31:53;4.97;;;3.77;;
10088;SDS011;51898;49.864;8.550;2023-08-30T16:34:55;4.40;;;3.70;;
10088;SDS011;51898;49.864;8.550;2023-08-30T16:37:57;5.07;;;3.50;;
10088;SDS011;51898;49.864;8.550;2023-08-30T16:40:59;4.33;;;3.97;;
10088;SDS011;51898;49.864;8.550;2023-08-30T16:44:05;7.40;;;3.93;;
10088;SDS011;51898;49.864;8.550;2023-08-30T16:47:07;7.67;;;3.33;;
10088;SDS011;51898;49.864;8.550;2023-08-30T16:50:09;4.40;;;3.33;;
10088;SDS011;51898;49.864;8.550;2023-08-30T16:53:10;4.63;;;3.33;;
10088;SDS011;51898;49.864;8.550;2023-08-30T16:56:12;5.17;;;3.43;;
10088;SDS011;51898;49.864;8.550;2023-08-30T16:59:14;4.40;;;4.00;;
10088;SDS011;51898;49.864;8.550;2023-08-30T17:02:15;3.83;;;3.30;;
10088;SDS011;51898;49.864;8.550;2023-08-30T17:05:17;4.90;;;3.93;;
10088;SDS011;51898;49.864;8.550;2023-08-30T17:08:19;3.83;;;3.43;;
10088;SDS011;51898;49.864;8.550;2023-08-30T17:11:22;4.60;;;4.10;;
10088;SDS011;51898;49.864;8.550;2023-08-30T17:14:24;5.23;;;3.80;;
10088;SDS011;51898;49.864;8.550;2023-08-30T17:17:26;6.00;;;3.20;;
10088;SDS011;51898;49.864;8.550;2023-08-30T17:20:28;4.00;;;3.33;;
10088;SDS011;51898;49.864;8.550;2023-08-30T17:23:30;5.10;;;3.40;;
10088;SDS011;51898;49.864;8.550;2023-08-30T17:26:32;6.87;;;3.50;;
10088;SDS011;51898;49.864;8.550;2023-08-30T17:29:33;5.60;;;3.70;;
10088;SDS011;51898;49.864;8.550;2023-08-30T17:32:35;7.73;;;3.50;;
10088;SDS011;51898;49.864;8.550;2023-08-30T17:35:37;4.83;;;3.47;;
10088;SDS011;51898;49.864;8.550;2023-08-30T17:38:39;6.50;;;4.13;;
10088;SDS011;51898;49.864;8.550;2023-08-30T17:41:40;3.67;;;3.37;;
10088;SDS011;51898;49.864;8.550;2023-08-30T17:44:44;13.93;;;4.17;;
10088;SDS011;51898;49.864;8.550;2023-08-30T17:47:59;8.20;;;3.93;;
10088;SDS011;51898;49.864;8.550;2023-08-30T17:51:01;4.70;;;3.63;;
10088;SDS011;51898;49.864;8.550;2023-08-30T17:54:04;10.43;;;3.70;;
10088;SDS011;51898;49.864;8.550;2023-08-30T17:57:06;3.90;;;3.50;;
10088;SDS011;51898;49.864;8.550;2023-08-30T18:00:09;4.13;;;3.77;;
10088;SDS011;51898;49.864;8.550;2023-08-30T18:03:15;4.40;;;3.87;;
10088;SDS011;51898;49.864;8.550;2023-08-30T18:06:17;4.30;;;3.77;;
10088;SDS011;51898;49.864;8.550;2023-08-30T18:09:19;6.10;;;3.90;;
10088;SDS011;51898;49.864;8.550;2023-08-30T18:12:21;3.63;;;3.33;;